sensor_id;sensor_type;location;lat;lon;timestamp;P1;durP1;ratioP1;P2;durP2;ratioP2
5823;SDS011;2938;52.254;12.988;2023-07-24T00:02:02;16.17;;;5.33;;
5823;SDS011;2938;52.254;12.988;2023-07-24T00:04:29;83.88;;;11.20;;
5823;SDS011;2938;52.254;12.988;2023-07-24T00:06:55;36.70;;;6.78;;
5823;SDS011;2938;52.254;12.988;2023-07-24T00:09:20;20.00;;;6.30;;
5823;SDS011;2938;52.254;12.988;2023-07-24T00:11:46;30.67;;;6.97;;
5823;SDS011;2938;52.254;12.988;2023-07-24T00:14:11;20.10;;;5.67;;
5823;SDS011;2938;52.254;12.988;2023-07-24T00:16:36;13.88;;;4.45;;
5823;SDS011;2938;52.254;12.988;2023-07-24T00:19:02;26.75;;;5.07;;
5823;SDS011;2938;52.254;12.988;2023-07-24T00:21:27;13.48;;;5.45;;
5823;SDS011;2938;52.254;12.988;2023-07-24T00:23:55;14.98;;;4.93;;
5823;SDS011;2938;52.254;12.988;2023-07-24T00:26:20;9.50;;;4.80;;
5823;SDS011;2938;52.254;12.988;2023-07-24T00:28:46;5.80;;;3.93;;
5823;SDS011;2938;52.254;12.988;2023-07-24T00:31:11;10.00;;;4.25;;
5823;SDS011;2938;52.254;12.988;2023-07-24T00:33:36;5.93;;;3.83;;
5823;SDS011;2938;52.254;12.988;2023-07-24T00:36:02;7.82;;;4.28;;
5823;SDS011;2938;52.254;12.988;2023-07-24T00:38:27;5.60;;;3.50;;
5823;SDS011;2938;52.254;12.988;2023-07-24T00:40:52;4.57;;;3.35;;
5823;SDS011;2938;52.254;12.988;2023-07-24T00:43:17;6.03;;;3.78;;
5823;SDS011;2938;52.254;12.988;2023-07-24T00:45:43;7.60;;;3.67;;
5823;SDS011;2938;52.254;12.988;2023-07-24T00:48:10;15.38;;;4.32;;
5823;SDS011;2938;52.254;12.988;2023-07-24T00:50:35;5.18;;;4.15;;
5823;SDS011;2938;52.254;12.988;2023-07-24T00:53:01;5.72;;;3.92;;
5823;SDS011;2938;52.254;12.988;2023-07-24T00:55:27;4.63;;;3.97;;
5823;SDS011;2938;52.254;12.988;2023-07-24T00:57:52;5.30;;;4.25;;
5823;SDS011;2938;52.254;12.988;2023-07-24T01:00:17;5.75;;;3.65;;
5823;SDS011;2938;52.254;12.988;2023-07-24T01:02:43;6.95;;;3.75;;
5823;SDS011;2938;52.254;12.988;2023-07-24T01:05:12;7.30;;;3.90;;
5823;SDS011;2938;52.254;12.988;2023-07-24T01:07:39;12.38;;;3.90;;
5823;SDS011;2938;52.254;12.988;2023-07-24T01:10:04;4.70;;;3.85;;
5823;SDS011;2938;52.254;12.988;2023-07-24T01:12:35;11.98;;;3.85;;
5823;SDS011;2938;52.254;12.988;2023-07-24T01:15:03;8.80;;;4.50;;
5823;SDS011;2938;52.254;12.988;2023-07-24T01:17:54;9.85;;;4.15;;
5823;SDS011;2938;52.254;12.988;2023-07-24T01:20:24;6.93;;;4.63;;
5823;SDS011;2938;52.254;12.988;2023-07-24T01:25:32;5.45;;;4.07;;
5823;SDS011;2938;52.254;12.988;2023-07-24T01:28:00;8.50;;;4.75;;
5823;SDS011;2938;52.254;12.988;2023-07-24T01:30:25;9.15;;;4.53;;
5823;SDS011;2938;52.254;12.988;2023-07-24T01:32:51;7.13;;;4.13;;
5823;SDS011;2938;52.254;12.988;2023-07-24T01:35:16;7.28;;;4.68;;
5823;SDS011;2938;52.254;12.988;2023-07-24T01:37:42;6.68;;;4.85;;
5823;SDS011;2938;52.254;12.988;2023-07-24T01:40:08;7.20;;;4.47;;
5823;SDS011;2938;52.254;12.988;2023-07-24T01:42:34;7.40;;;4.20;;
5823;SDS011;2938;52.254;12.988;2023-07-24T01:45:01;6.35;;;3.92;;
5823;SDS011;2938;52.254;12.988;2023-07-24T01:47:30;9.63;;;3.85;;
5823;SDS011;2938;52.254;12.988;2023-07-24T01:49:57;7.20;;;4.97;;
5823;SDS011;2938;52.254;12.988;2023-07-24T01:52:23;16.33;;;4.25;;
5823;SDS011;2938;52.254;12.988;2023-07-24T01:54:48;6.38;;;3.70;;
5823;SDS011;2938;52.254;12.988;2023-07-24T01:57:13;9.68;;;4.45;;
5823;SDS011;2938;52.254;12.988;2023-07-24T01:59:39;5.18;;;4.65;;
5823;SDS011;2938;52.254;12.988;2023-07-24T02:02:04;10.30;;;3.92;;
5823;SDS011;2938;52.254;12.988;2023-07-24T02:04:29;5.70;;;3.40;;
5823;SDS011;2938;52.254;12.988;2023-07-24T02:06:55;5.60;;;4.68;;
5823;SDS011;2938;52.254;12.988;2023-07-24T02:09:20;5.15;;;3.58;;
5823;SDS011;2938;52.254;12.988;2023-07-24T02:11:45;7.00;;;3.83;;
5823;SDS011;2938;52.254;12.988;2023-07-24T02:14:11;10.32;;;3.70;;
5823;SDS011;2938;52.254;12.988;2023-07-24T02:16:37;7.28;;;3.67;;
5823;SDS011;2938;52.254;12.988;2023-07-24T02:19:03;7.38;;;4.10;;
5823;SDS011;2938;52.254;12.988;2023-07-24T02:21:28;5.63;;;3.85;;
5823;SDS011;2938;52.254;12.988;2023-07-24T02:23:53;6.50;;;2.67;;
5823;SDS011;2938;52.254;12.988;2023-07-24T02:26:19;9.88;;;3.78;;
5823;SDS011;2938;52.254;12.988;2023-07-24T02:28:44;4.95;;;3.58;;
5823;SDS011;2938;52.254;12.988;2023-07-24T02:31:09;2.90;;;2.27;;
5823;SDS011;2938;52.254;12.988;2023-07-24T02:33:35;3.47;;;2.75;;
5823;SDS011;2938;52.254;12.988;2023-07-24T02:36:00;3.65;;;2.85;;
5823;SDS011;2938;52.254;12.988;2023-07-24T02:38:26;4.10;;;2.50;;
5823;SDS011;2938;52.254;12.988;2023-07-24T02:40:54;3.70;;;2.97;;
5823;SDS011;2938;52.254;12.988;2023-07-24T02:43:19;7.10;;;2.93;;
5823;SDS011;2938;52.254;12.988;2023-07-24T02:45:44;4.13;;;2.65;;
5823;SDS011;2938;52.254;12.988;2023-07-24T02:48:10;4.13;;;2.50;;
5823;SDS011;2938;52.254;12.988;2023-07-24T02:50:35;5.03;;;2.93;;
5823;SDS011;2938;52.254;12.988;2023-07-24T02:53:00;2.72;;;2.45;;
5823;SDS011;2938;52.254;12.988;2023-07-24T02:58:17;7.47;;;1.95;;
5823;SDS011;2938;52.254;12.988;2023-07-24T03:00:46;4.28;;;2.42;;
5823;SDS011;2938;52.254;12.988;2023-07-24T03:03:11;3.45;;;2.30;;
5823;SDS011;2938;52.254;12.988;2023-07-24T03:05:37;5.93;;;2.20;;
5823;SDS011;2938;52.254;12.988;2023-07-24T03:08:02;2.03;;;1.70;;
5823;SDS011;2938;52.254;12.988;2023-07-24T03:10:28;7.25;;;2.45;;
5823;SDS011;2938;52.254;12.988;2023-07-24T03:12:56;3.08;;;2.38;;
5823;SDS011;2938;52.254;12.988;2023-07-24T03:15:22;2.15;;;1.95;;
5823;SDS011;2938;52.254;12.988;2023-07-24T03:17:47;8.38;;;2.30;;
5823;SDS011;2938;52.254;12.988;2023-07-24T03:20:13;10.90;;;2.43;;
5823;SDS011;2938;52.254;12.988;2023-07-24T03:22:40;5.45;;;2.05;;
5823;SDS011;2938;52.254;12.988;2023-07-24T03:25:09;16.33;;;2.67;;
5823;SDS011;2938;52.254;12.988;2023-07-24T03:27:34;3.75;;;2.90;;
5823;SDS011;2938;52.254;12.988;2023-07-24T03:30:05;5.40;;;2.00;;
5823;SDS011;2938;52.254;12.988;2023-07-24T03:32:54;5.70;;;2.03;;
5823;SDS011;2938;52.254;12.988;2023-07-24T03:35:19;2.35;;;1.70;;
5823;SDS011;2938;52.254;12.988;2023-07-24T03:37:45;3.28;;;1.40;;
5823;SDS011;2938;52.254;12.988;2023-07-24T03:40:16;2.35;;;1.52;;
5823;SDS011;2938;52.254;12.988;2023-07-24T03:42:53;1.30;;;1.20;;
5823;SDS011;2938;52.254;12.988;2023-07-24T03:45:18;3.60;;;1.50;;
5823;SDS011;2938;52.254;12.988;2023-07-24T03:47:52;4.07;;;1.40;;
5823;SDS011;2938;52.254;12.988;2023-07-24T03:53:38;2.55;;;1.55;;
5823;SDS011;2938;52.254;12.988;2023-07-24T03:56:06;2.70;;;1.42;;
5823;SDS011;2938;52.254;12.988;2023-07-24T04:02:28;2.05;;;1.52;;
5823;SDS011;2938;52.254;12.988;2023-07-24T04:06:07;16.05;;;1.75;;
5823;SDS011;2938;52.254;12.988;2023-07-24T04:08:31;12.13;;;2.20;;
5823;SDS011;2938;52.254;12.988;2023-07-24T04:10:56;1.83;;;1.40;;
5823;SDS011;2938;52.254;12.988;2023-07-24T04:13:22;4.10;;;1.63;;
5823;SDS011;2938;52.254;12.988;2023-07-24T04:15:47;3.63;;;1.98;;
5823;SDS011;2938;52.254;12.988;2023-07-24T04:18:13;11.40;;;2.28;;
5823;SDS011;2938;52.254;12.988;2023-07-24T04:20:38;7.45;;;1.48;;
5823;SDS011;2938;52.254;12.988;2023-07-24T04:23:06;3.08;;;1.40;;
5823;SDS011;2938;52.254;12.988;2023-07-24T04:25:31;2.80;;;1.63;;
5823;SDS011;2938;52.254;12.988;2023-07-24T04:27:56;4.57;;;2.20;;
5823;SDS011;2938;52.254;12.988;2023-07-24T04:30:21;2.67;;;1.52;;
5823;SDS011;2938;52.254;12.988;2023-07-24T04:32:47;4.82;;;2.13;;
5823;SDS011;2938;52.254;12.988;2023-07-24T04:35:12;2.67;;;1.40;;
5823;SDS011;2938;52.254;12.988;2023-07-24T04:37:37;3.30;;;2.13;;
5823;SDS011;2938;52.254;12.988;2023-07-24T04:40:03;3.70;;;1.98;;
5823;SDS011;2938;52.254;12.988;2023-07-24T04:42:29;5.00;;;2.00;;
5823;SDS011;2938;52.254;12.988;2023-07-24T04:44:54;7.47;;;2.55;;
5823;SDS011;2938;52.254;12.988;2023-07-24T04:47:19;5.73;;;1.90;;
5823;SDS011;2938;52.254;12.988;2023-07-24T04:49:44;2.10;;;1.90;;
5823;SDS011;2938;52.254;12.988;2023-07-24T04:52:10;3.70;;;2.17;;
5823;SDS011;2938;52.254;12.988;2023-07-24T04:54:35;5.40;;;2.40;;
5823;SDS011;2938;52.254;12.988;2023-07-24T04:57:00;4.67;;;1.57;;
5823;SDS011;2938;52.254;12.988;2023-07-24T04:59:26;2.97;;;2.10;;
5823;SDS011;2938;52.254;12.988;2023-07-24T05:01:51;3.63;;;1.70;;
5823;SDS011;2938;52.254;12.988;2023-07-24T05:04:16;1.75;;;1.65;;
5823;SDS011;2938;52.254;12.988;2023-07-24T05:06:42;4.07;;;1.63;;
5823;SDS011;2938;52.254;12.988;2023-07-24T05:09:07;1.97;;;1.47;;
5823;SDS011;2938;52.254;12.988;2023-07-24T05:11:33;2.50;;;1.42;;
5823;SDS011;2938;52.254;12.988;2023-07-24T05:13:58;4.68;;;1.85;;
5823;SDS011;2938;52.254;12.988;2023-07-24T05:16:26;2.53;;;1.30;;
5823;SDS011;2938;52.254;12.988;2023-07-24T05:18:56;1.98;;;1.73;;
5823;SDS011;2938;52.254;12.988;2023-07-24T05:21:21;3.37;;;1.57;;
5823;SDS011;2938;52.254;12.988;2023-07-24T05:23:46;2.63;;;1.67;;
5823;SDS011;2938;52.254;12.988;2023-07-24T05:26:14;2.65;;;1.48;;
5823;SDS011;2938;52.254;12.988;2023-07-24T05:28:40;2.23;;;1.80;;
5823;SDS011;2938;52.254;12.988;2023-07-24T05:31:05;1.58;;;1.38;;
5823;SDS011;2938;52.254;12.988;2023-07-24T05:33:32;1.48;;;1.38;;
5823;SDS011;2938;52.254;12.988;2023-07-24T05:35:58;1.90;;;1.60;;
5823;SDS011;2938;52.254;12.988;2023-07-24T05:38:24;2.33;;;1.83;;
5823;SDS011;2938;52.254;12.988;2023-07-24T05:40:59;6.63;;;1.67;;
5823;SDS011;2938;52.254;12.988;2023-07-24T05:43:26;2.08;;;1.80;;
5823;SDS011;2938;52.254;12.988;2023-07-24T05:45:55;3.13;;;1.98;;
5823;SDS011;2938;52.254;12.988;2023-07-24T05:48:21;2.10;;;1.83;;
5823;SDS011;2938;52.254;12.988;2023-07-24T05:50:47;3.47;;;1.83;;
5823;SDS011;2938;52.254;12.988;2023-07-24T05:53:15;2.90;;;2.22;;
5823;SDS011;2938;52.254;12.988;2023-07-24T05:55:43;2.05;;;1.85;;
5823;SDS011;2938;52.254;12.988;2023-07-24T05:58:08;1.83;;;1.70;;
5823;SDS011;2938;52.254;12.988;2023-07-24T06:00:34;3.70;;;1.75;;
5823;SDS011;2938;52.254;12.988;2023-07-24T06:03:01;3.30;;;2.47;;
5823;SDS011;2938;52.254;12.988;2023-07-24T06:05:26;3.30;;;2.03;;
5823;SDS011;2938;52.254;12.988;2023-07-24T06:07:52;1.80;;;1.70;;
5823;SDS011;2938;52.254;12.988;2023-07-24T06:10:17;3.70;;;1.80;;
5823;SDS011;2938;52.254;12.988;2023-07-24T06:12:42;2.08;;;1.70;;
5823;SDS011;2938;52.254;12.988;2023-07-24T06:15:10;4.55;;;3.72;;
5823;SDS011;2938;52.254;12.988;2023-07-24T06:17:36;5.68;;;2.35;;
5823;SDS011;2938;52.254;12.988;2023-07-24T06:20:01;2.17;;;1.97;;
5823;SDS011;2938;52.254;12.988;2023-07-24T06:22:26;3.20;;;2.90;;
5823;SDS011;2938;52.254;12.988;2023-07-24T06:24:52;2.73;;;2.40;;
5823;SDS011;2938;52.254;12.988;2023-07-24T06:27:17;5.60;;;1.57;;
5823;SDS011;2938;52.254;12.988;2023-07-24T06:29:42;5.25;;;2.33;;
5823;SDS011;2938;52.254;12.988;2023-07-24T06:32:08;2.92;;;2.17;;
5823;SDS011;2938;52.254;12.988;2023-07-24T06:34:33;1.88;;;1.77;;
5823;SDS011;2938;52.254;12.988;2023-07-24T06:37:01;2.30;;;2.10;;
5823;SDS011;2938;52.254;12.988;2023-07-24T06:39:26;2.80;;;2.08;;
5823;SDS011;2938;52.254;12.988;2023-07-24T06:41:53;2.55;;;2.05;;
5823;SDS011;2938;52.254;12.988;2023-07-24T06:44:19;2.05;;;1.55;;
5823;SDS011;2938;52.254;12.988;2023-07-24T06:46:44;2.05;;;1.85;;
5823;SDS011;2938;52.254;12.988;2023-07-24T06:49:10;2.00;;;1.60;;
5823;SDS011;2938;52.254;12.988;2023-07-24T06:51:36;2.97;;;1.65;;
5823;SDS011;2938;52.254;12.988;2023-07-24T06:54:02;6.22;;;2.05;;
5823;SDS011;2938;52.254;12.988;2023-07-24T06:56:27;3.97;;;1.85;;
5823;SDS011;2938;52.254;12.988;2023-07-24T06:58:53;3.92;;;2.08;;
5823;SDS011;2938;52.254;12.988;2023-07-24T07:01:18;6.00;;;1.95;;
5823;SDS011;2938;52.254;12.988;2023-07-24T07:03:46;3.78;;;1.90;;
5823;SDS011;2938;52.254;12.988;2023-07-24T07:06:12;10.95;;;3.65;;
5823;SDS011;2938;52.254;12.988;2023-07-24T07:08:40;4.40;;;1.92;;
5823;SDS011;2938;52.254;12.988;2023-07-24T07:13:37;3.25;;;2.42;;
5823;SDS011;2938;52.254;12.988;2023-07-24T07:16:08;3.23;;;2.57;;
5823;SDS011;2938;52.254;12.988;2023-07-24T07:18:34;3.47;;;2.55;;
5823;SDS011;2938;52.254;12.988;2023-07-24T07:20:59;7.00;;;2.83;;
5823;SDS011;2938;52.254;12.988;2023-07-24T07:23:24;2.43;;;2.17;;
5823;SDS011;2938;52.254;12.988;2023-07-24T07:25:50;1.63;;;1.50;;
5823;SDS011;2938;52.254;12.988;2023-07-24T07:28:16;4.60;;;3.17;;
5823;SDS011;2938;52.254;12.988;2023-07-24T07:30:44;1.95;;;1.83;;
5823;SDS011;2938;52.254;12.988;2023-07-24T07:33:10;3.30;;;2.10;;
5823;SDS011;2938;52.254;12.988;2023-07-24T07:35:35;3.72;;;2.25;;
5823;SDS011;2938;52.254;12.988;2023-07-24T07:38:01;2.85;;;2.33;;
5823;SDS011;2938;52.254;12.988;2023-07-24T07:40:27;5.80;;;3.28;;
5823;SDS011;2938;52.254;12.988;2023-07-24T07:42:52;8.10;;;1.85;;
5823;SDS011;2938;52.254;12.988;2023-07-24T07:45:18;4.10;;;1.92;;
5823;SDS011;2938;52.254;12.988;2023-07-24T07:47:44;2.63;;;2.42;;
5823;SDS011;2938;52.254;12.988;2023-07-24T07:50:09;7.05;;;2.10;;
5823;SDS011;2938;52.254;12.988;2023-07-24T07:52:35;2.47;;;2.25;;
5823;SDS011;2938;52.254;12.988;2023-07-24T07:55:00;2.53;;;2.20;;
5823;SDS011;2938;52.254;12.988;2023-07-24T07:57:25;4.30;;;2.90;;
5823;SDS011;2938;52.254;12.988;2023-07-24T07:59:50;2.97;;;2.00;;
5823;SDS011;2938;52.254;12.988;2023-07-24T08:02:16;4.43;;;2.13;;
5823;SDS011;2938;52.254;12.988;2023-07-24T08:04:41;3.73;;;2.07;;
5823;SDS011;2938;52.254;12.988;2023-07-24T08:07:06;2.83;;;2.50;;
5823;SDS011;2938;52.254;12.988;2023-07-24T08:09:32;3.13;;;2.17;;
5823;SDS011;2938;52.254;12.988;2023-07-24T08:11:58;4.15;;;2.00;;
5823;SDS011;2938;52.254;12.988;2023-07-24T08:14:23;3.25;;;2.42;;
5823;SDS011;2938;52.254;12.988;2023-07-24T08:16:49;6.22;;;3.15;;
5823;SDS011;2938;52.254;12.988;2023-07-24T08:19:15;5.97;;;2.30;;
5823;SDS011;2938;52.254;12.988;2023-07-24T08:21:40;2.38;;;2.17;;
5823;SDS011;2938;52.254;12.988;2023-07-24T08:24:06;20.27;;;2.53;;
5823;SDS011;2938;52.254;12.988;2023-07-24T08:26:31;4.65;;;2.00;;
5823;SDS011;2938;52.254;12.988;2023-07-24T08:28:57;3.70;;;1.77;;
5823;SDS011;2938;52.254;12.988;2023-07-24T08:31:22;4.13;;;2.10;;
5823;SDS011;2938;52.254;12.988;2023-07-24T08:33:47;5.40;;;2.30;;
5823;SDS011;2938;52.254;12.988;2023-07-24T08:36:12;2.20;;;1.77;;
5823;SDS011;2938;52.254;12.988;2023-07-24T08:38:38;3.30;;;2.67;;
5823;SDS011;2938;52.254;12.988;2023-07-24T08:41:05;3.80;;;3.03;;
5823;SDS011;2938;52.254;12.988;2023-07-24T08:43:33;2.50;;;2.30;;
5823;SDS011;2938;52.254;12.988;2023-07-24T08:45:59;8.63;;;2.80;;
5823;SDS011;2938;52.254;12.988;2023-07-24T08:48:26;6.18;;;3.00;;
5823;SDS011;2938;52.254;12.988;2023-07-24T08:50:55;3.10;;;2.42;;
5823;SDS011;2938;52.254;12.988;2023-07-24T08:53:21;4.03;;;2.40;;
5823;SDS011;2938;52.254;12.988;2023-07-24T08:59:16;9.20;;;2.83;;
5823;SDS011;2938;52.254;12.988;2023-07-24T09:01:41;5.72;;;2.55;;
5823;SDS011;2938;52.254;12.988;2023-07-24T09:04:07;5.20;;;3.28;;
5823;SDS011;2938;52.254;12.988;2023-07-24T09:06:45;3.97;;;2.97;;
5823;SDS011;2938;52.254;12.988;2023-07-24T09:09:29;2.33;;;2.08;;
5823;SDS011;2938;52.254;12.988;2023-07-24T09:15:14;5.18;;;3.00;;
5823;SDS011;2938;52.254;12.988;2023-07-24T09:17:52;4.57;;;2.90;;
5823;SDS011;2938;52.254;12.988;2023-07-24T09:20:41;5.95;;;3.00;;
5823;SDS011;2938;52.254;12.988;2023-07-24T09:23:27;4.43;;;3.20;;
5823;SDS011;2938;52.254;12.988;2023-07-24T09:30:11;4.07;;;3.33;;
5823;SDS011;2938;52.254;12.988;2023-07-24T09:32:57;12.32;;;4.07;;
5823;SDS011;2938;52.254;12.988;2023-07-24T09:39:00;3.30;;;2.63;;
5823;SDS011;2938;52.254;12.988;2023-07-24T09:41:37;6.20;;;3.25;;
5823;SDS011;2938;52.254;12.988;2023-07-24T09:44:04;9.82;;;3.50;;
5823;SDS011;2938;52.254;12.988;2023-07-24T09:46:30;3.55;;;3.25;;
5823;SDS011;2938;52.254;12.988;2023-07-24T09:49:00;6.57;;;2.73;;
5823;SDS011;2938;52.254;12.988;2023-07-24T09:51:27;6.97;;;3.78;;
5823;SDS011;2938;52.254;12.988;2023-07-24T09:53:55;6.25;;;3.17;;
5823;SDS011;2938;52.254;12.988;2023-07-24T09:56:23;18.85;;;5.63;;
5823;SDS011;2938;52.254;12.988;2023-07-24T09:58:48;8.13;;;3.70;;
5823;SDS011;2938;52.254;12.988;2023-07-24T10:01:19;7.45;;;4.20;;
5823;SDS011;2938;52.254;12.988;2023-07-24T10:03:46;8.88;;;3.92;;
5823;SDS011;2938;52.254;12.988;2023-07-24T10:06:12;16.23;;;5.28;;
5823;SDS011;2938;52.254;12.988;2023-07-24T10:08:40;4.72;;;3.85;;
5823;SDS011;2938;52.254;12.988;2023-07-24T10:11:13;5.93;;;4.18;;
5823;SDS011;2938;52.254;12.988;2023-07-24T10:13:42;19.15;;;5.40;;
5823;SDS011;2938;52.254;12.988;2023-07-24T10:16:08;6.03;;;4.60;;
5823;SDS011;2938;52.254;12.988;2023-07-24T10:18:34;13.88;;;4.95;;
5823;SDS011;2938;52.254;12.988;2023-07-24T10:21:01;8.55;;;4.00;;
5823;SDS011;2938;52.254;12.988;2023-07-24T10:23:30;6.03;;;4.80;;
5823;SDS011;2938;52.254;12.988;2023-07-24T10:26:01;5.65;;;4.10;;
5823;SDS011;2938;52.254;12.988;2023-07-24T10:28:30;5.45;;;4.10;;
5823;SDS011;2938;52.254;12.988;2023-07-24T10:30:57;7.25;;;4.60;;
5823;SDS011;2938;52.254;12.988;2023-07-24T10:33:22;5.38;;;4.40;;
5823;SDS011;2938;52.254;12.988;2023-07-24T10:35:49;12.63;;;4.97;;
5823;SDS011;2938;52.254;12.988;2023-07-24T10:38:18;7.53;;;4.55;;
5823;SDS011;2938;52.254;12.988;2023-07-24T10:40:44;6.57;;;5.20;;
5823;SDS011;2938;52.254;12.988;2023-07-24T10:43:17;9.20;;;4.45;;
5823;SDS011;2938;52.254;12.988;2023-07-24T10:45:50;8.77;;;4.85;;
5823;SDS011;2938;52.254;12.988;2023-07-24T10:48:18;11.05;;;5.40;;
5823;SDS011;2938;52.254;12.988;2023-07-24T10:50:44;12.55;;;6.18;;
5823;SDS011;2938;52.254;12.988;2023-07-24T10:53:10;7.35;;;5.47;;
5823;SDS011;2938;52.254;12.988;2023-07-24T10:55:38;5.68;;;4.38;;
5823;SDS011;2938;52.254;12.988;2023-07-24T10:58:05;7.25;;;5.13;;
5823;SDS011;2938;52.254;12.988;2023-07-24T11:00:34;7.22;;;4.90;;
5823;SDS011;2938;52.254;12.988;2023-07-24T11:02:59;10.63;;;5.15;;
5823;SDS011;2938;52.254;12.988;2023-07-24T11:05:25;7.05;;;4.95;;
5823;SDS011;2938;52.254;12.988;2023-07-24T11:07:50;6.18;;;5.30;;
5823;SDS011;2938;52.254;12.988;2023-07-24T11:10:34;5.37;;;4.70;;
5823;SDS011;2938;52.254;12.988;2023-07-24T11:13:09;10.57;;;4.68;;
5823;SDS011;2938;52.254;12.988;2023-07-24T11:15:35;7.03;;;4.85;;
5823;SDS011;2938;52.254;12.988;2023-07-24T11:18:11;13.15;;;7.78;;
5823;SDS011;2938;52.254;12.988;2023-07-24T11:23:18;18.67;;;5.22;;
5823;SDS011;2938;52.254;12.988;2023-07-24T11:25:44;12.40;;;5.65;;
5823;SDS011;2938;52.254;12.988;2023-07-24T11:28:11;10.50;;;5.75;;
5823;SDS011;2938;52.254;12.988;2023-07-24T11:30:41;12.15;;;5.60;;
5823;SDS011;2938;52.254;12.988;2023-07-24T11:33:11;7.40;;;5.53;;
5823;SDS011;2938;52.254;12.988;2023-07-24T11:35:37;9.38;;;5.63;;
5823;SDS011;2938;52.254;12.988;2023-07-24T11:38:06;13.70;;;6.00;;
5823;SDS011;2938;52.254;12.988;2023-07-24T11:40:36;7.82;;;5.72;;
5823;SDS011;2938;52.254;12.988;2023-07-24T11:43:14;9.95;;;6.05;;
5823;SDS011;2938;52.254;12.988;2023-07-24T11:45:44;6.63;;;5.38;;
5823;SDS011;2938;52.254;12.988;2023-07-24T11:48:10;6.70;;;5.70;;
5823;SDS011;2938;52.254;12.988;2023-07-24T11:50:46;9.63;;;6.10;;
5823;SDS011;2938;52.254;12.988;2023-07-24T11:53:19;8.35;;;5.18;;
5823;SDS011;2938;52.254;12.988;2023-07-24T11:55:50;7.70;;;5.80;;
5823;SDS011;2938;52.254;12.988;2023-07-24T11:58:16;12.68;;;6.05;;
5823;SDS011;2938;52.254;12.988;2023-07-24T12:00:42;10.52;;;5.78;;
5823;SDS011;2938;52.254;12.988;2023-07-24T12:03:10;9.68;;;5.82;;
5823;SDS011;2938;52.254;12.988;2023-07-24T12:05:42;5.90;;;5.28;;
5823;SDS011;2938;52.254;12.988;2023-07-24T12:08:11;10.30;;;5.88;;
5823;SDS011;2938;52.254;12.988;2023-07-24T12:10:39;12.55;;;6.10;;
5823;SDS011;2938;52.254;12.988;2023-07-24T12:13:05;8.57;;;6.07;;
5823;SDS011;2938;52.254;12.988;2023-07-24T12:15:30;7.95;;;5.82;;
5823;SDS011;2938;52.254;12.988;2023-07-24T12:17:56;8.95;;;5.32;;
5823;SDS011;2938;52.254;12.988;2023-07-24T12:20:24;8.05;;;5.80;;
5823;SDS011;2938;52.254;12.988;2023-07-24T12:22:50;8.23;;;6.65;;
5823;SDS011;2938;52.254;12.988;2023-07-24T12:25:15;11.90;;;6.30;;
5823;SDS011;2938;52.254;12.988;2023-07-24T12:27:41;10.77;;;6.28;;
5823;SDS011;2938;52.254;12.988;2023-07-24T12:30:07;10.75;;;5.90;;
5823;SDS011;2938;52.254;12.988;2023-07-24T12:32:33;13.48;;;5.60;;
5823;SDS011;2938;52.254;12.988;2023-07-24T12:35:02;17.77;;;7.23;;
5823;SDS011;2938;52.254;12.988;2023-07-24T12:37:27;7.97;;;4.97;;
5823;SDS011;2938;52.254;12.988;2023-07-24T12:39:53;7.18;;;5.53;;
5823;SDS011;2938;52.254;12.988;2023-07-24T12:42:27;7.28;;;5.50;;
5823;SDS011;2938;52.254;12.988;2023-07-24T12:44:52;12.48;;;5.43;;
5823;SDS011;2938;52.254;12.988;2023-07-24T12:47:18;10.23;;;6.60;;
5823;SDS011;2938;52.254;12.988;2023-07-24T12:49:45;8.05;;;5.90;;
5823;SDS011;2938;52.254;12.988;2023-07-24T12:52:11;7.30;;;6.37;;
5823;SDS011;2938;52.254;12.988;2023-07-24T12:54:36;7.78;;;5.53;;
5823;SDS011;2938;52.254;12.988;2023-07-24T12:57:02;9.07;;;4.97;;
5823;SDS011;2938;52.254;12.988;2023-07-24T12:59:30;5.95;;;3.88;;
5823;SDS011;2938;52.254;12.988;2023-07-24T13:01:58;4.82;;;3.42;;
5823;SDS011;2938;52.254;12.988;2023-07-24T13:04:31;5.72;;;4.13;;
5823;SDS011;2938;52.254;12.988;2023-07-24T13:10:33;7.45;;;3.67;;
5823;SDS011;2938;52.254;12.988;2023-07-24T13:13:05;6.88;;;4.07;;
5823;SDS011;2938;52.254;12.988;2023-07-24T13:15:30;6.60;;;4.55;;
5823;SDS011;2938;52.254;12.988;2023-07-24T13:17:58;6.70;;;3.53;;
5823;SDS011;2938;52.254;12.988;2023-07-24T13:20:24;7.35;;;4.05;;
5823;SDS011;2938;52.254;12.988;2023-07-24T13:22:50;5.32;;;3.72;;
5823;SDS011;2938;52.254;12.988;2023-07-24T13:25:15;6.22;;;4.10;;
5823;SDS011;2938;52.254;12.988;2023-07-24T13:27:40;7.30;;;3.55;;
5823;SDS011;2938;52.254;12.988;2023-07-24T13:30:06;4.77;;;4.00;;
5823;SDS011;2938;52.254;12.988;2023-07-24T13:32:31;9.32;;;4.68;;
5823;SDS011;2938;52.254;12.988;2023-07-24T13:34:57;11.82;;;3.85;;
5823;SDS011;2938;52.254;12.988;2023-07-24T13:37:25;7.00;;;4.18;;
5823;SDS011;2938;52.254;12.988;2023-07-24T13:39:54;5.88;;;4.00;;
5823;SDS011;2938;52.254;12.988;2023-07-24T13:42:30;5.17;;;4.00;;
5823;SDS011;2938;52.254;12.988;2023-07-24T13:45:05;9.60;;;3.97;;
5823;SDS011;2938;52.254;12.988;2023-07-24T13:47:31;5.18;;;3.70;;
5823;SDS011;2938;52.254;12.988;2023-07-24T13:49:59;8.15;;;4.20;;
5823;SDS011;2938;52.254;12.988;2023-07-24T13:52:31;5.68;;;3.40;;
5823;SDS011;2938;52.254;12.988;2023-07-24T13:54:56;5.05;;;3.60;;
5823;SDS011;2938;52.254;12.988;2023-07-24T13:57:25;7.53;;;4.35;;
5823;SDS011;2938;52.254;12.988;2023-07-24T14:02:59;4.55;;;3.50;;
5823;SDS011;2938;52.254;12.988;2023-07-24T14:05:27;6.03;;;4.40;;
5823;SDS011;2938;52.254;12.988;2023-07-24T14:07:53;7.72;;;3.92;;
5823;SDS011;2938;52.254;12.988;2023-07-24T14:10:18;7.07;;;4.83;;
5823;SDS011;2938;52.254;12.988;2023-07-24T14:12:44;4.10;;;3.60;;
5823;SDS011;2938;52.254;12.988;2023-07-24T14:15:09;9.65;;;4.32;;
5823;SDS011;2938;52.254;12.988;2023-07-24T14:17:35;12.02;;;4.47;;
5823;SDS011;2938;52.254;12.988;2023-07-24T14:20:03;6.63;;;4.27;;
5823;SDS011;2938;52.254;12.988;2023-07-24T14:22:29;5.57;;;4.07;;
5823;SDS011;2938;52.254;12.988;2023-07-24T14:24:55;9.47;;;5.07;;
5823;SDS011;2938;52.254;12.988;2023-07-24T14:27:20;10.77;;;3.90;;
5823;SDS011;2938;52.254;12.988;2023-07-24T14:29:45;5.45;;;4.57;;
5823;SDS011;2938;52.254;12.988;2023-07-24T14:32:11;4.80;;;4.33;;
5823;SDS011;2938;52.254;12.988;2023-07-24T14:34:36;11.93;;;5.20;;
5823;SDS011;2938;52.254;12.988;2023-07-24T14:37:01;7.15;;;4.63;;
5823;SDS011;2938;52.254;12.988;2023-07-24T14:39:27;8.55;;;5.22;;
5823;SDS011;2938;52.254;12.988;2023-07-24T14:41:52;8.20;;;4.13;;
5823;SDS011;2938;52.254;12.988;2023-07-24T14:44:20;8.38;;;4.68;;
5823;SDS011;2938;52.254;12.988;2023-07-24T14:46:45;10.68;;;5.55;;
5823;SDS011;2938;52.254;12.988;2023-07-24T14:49:13;5.50;;;4.07;;
5823;SDS011;2938;52.254;12.988;2023-07-24T14:51:39;5.00;;;4.22;;
5823;SDS011;2938;52.254;12.988;2023-07-24T14:54:04;5.93;;;4.65;;
5823;SDS011;2938;52.254;12.988;2023-07-24T14:56:31;16.10;;;5.38;;
5823;SDS011;2938;52.254;12.988;2023-07-24T14:58:59;7.60;;;5.32;;
5823;SDS011;2938;52.254;12.988;2023-07-24T15:01:25;7.30;;;4.40;;
5823;SDS011;2938;52.254;12.988;2023-07-24T15:03:52;15.77;;;5.43;;
5823;SDS011;2938;52.254;12.988;2023-07-24T15:06:18;10.90;;;5.25;;
5823;SDS011;2938;52.254;12.988;2023-07-24T15:08:43;7.80;;;5.63;;
5823;SDS011;2938;52.254;12.988;2023-07-24T15:11:08;14.67;;;5.87;;
5823;SDS011;2938;52.254;12.988;2023-07-24T15:13:33;8.50;;;5.73;;
5823;SDS011;2938;52.254;12.988;2023-07-24T15:15:59;6.50;;;5.13;;
5823;SDS011;2938;52.254;12.988;2023-07-24T15:18:24;10.00;;;4.73;;
5823;SDS011;2938;52.254;12.988;2023-07-24T15:20:49;11.93;;;5.17;;
5823;SDS011;2938;52.254;12.988;2023-07-24T15:23:15;13.15;;;6.15;;
5823;SDS011;2938;52.254;12.988;2023-07-24T15:25:43;8.40;;;4.43;;
5823;SDS011;2938;52.254;12.988;2023-07-24T15:28:08;10.32;;;5.40;;
5823;SDS011;2938;52.254;12.988;2023-07-24T15:30:36;10.75;;;4.80;;
5823;SDS011;2938;52.254;12.988;2023-07-24T15:33:01;10.55;;;5.25;;
5823;SDS011;2938;52.254;12.988;2023-07-24T15:35:26;6.70;;;5.23;;
5823;SDS011;2938;52.254;12.988;2023-07-24T15:37:52;8.77;;;5.73;;